Time;durP1;ratioP1;P1;durP2;ratioP2;P2;SDS_P1;SDS_P2;PMS_P1;PMS_P2;Temp;Humidity;BMP_temperature;BMP_pressure;BME280_temperature;BME280_humidity;BME280_pressure;Samples;Min_cycle;Max_cycle;Signal;HPM_P1;HPM_P2
2021/05/08 00:00:36;;;;;;;5.03;1.83;;;5.20;98.50;;;;;;5029109;28;20038;-65
2021/05/08 00:03:04;;;;;;;6.38;2.08;;;5.20;98.70;;;;;;5027984;28;20061;-66
2021/05/08 00:05:30;;;;;;;5.40;2.13;;;5.10;99.20;;;;;;5026844;28;20037;-66
2021/05/08 00:07:56;;;;;;;6.05;2.25;;;5.10;99.00;;;;;;5025867;28;20048;-66
2021/05/08 00:10:23;;;;;;;6.47;2.03;;;5.00;99.00;;;;;;5027432;28;20033;-66
2021/05/08 00:12:48;;;;;;;3.33;1.90;;;5.00;99.30;;;;;;5026089;28;20056;-66
2021/05/08 00:15:16;;;;;;;2.88;1.20;;;5.00;99.10;;;;;;5027041;28;20029;-66
2021/05/08 00:17:42;;;;;;;7.35;2.00;;;5.00;99.00;;;;;;5028168;28;20041;-66
2021/05/08 00:20:10;;;;;;;5.72;2.25;;;5.00;99.10;;;;;;5026156;28;20053;-66
2021/05/08 00:22:37;;;;;;;5.93;1.52;;;5.00;99.10;;;;;;5028179;28;20152;-65
2021/05/08 00:25:04;;;;;;;4.25;1.88;;;4.90;99.00;;;;;;5026959;28;20116;-66
2021/05/08 00:27:30;;;;;;;6.93;2.67;;;4.90;99.00;;;;;;5028837;28;20059;-66
2021/05/08 00:29:55;;;;;;;8.18;2.28;;;4.90;99.10;;;;;;5021014;28;20037;-66
2021/05/08 00:32:21;;;;;;;8.18;2.55;;;5.00;99.90;;;;;;5026756;28;20041;-66
2021/05/08 00:34:47;;;;;;;2.88;2.30;;;4.90;99.70;;;;;;5027780;28;20037;-66
2021/05/08 00:37:12;;;;;;;6.95;2.05;;;4.80;99.80;;;;;;5023861;28;20507;-66
2021/05/08 00:39:38;;;;;;;8.52;2.47;;;4.70;99.70;;;;;;5028425;28;20049;-66
2021/05/08 00:42:05;;;;;;;10.27;2.40;;;4.70;99.80;;;;;;5026141;28;20046;-65
2021/05/08 00:44:31;;;;;;;4.75;2.13;;;4.70;99.90;;;;;;5028438;28;20040;-65
2021/05/08 00:46:57;;;;;;;6.95;2.05;;;4.70;99.90;;;;;;5027084;28;20041;-66
2021/05/08 00:49:26;;;;;;;5.53;2.55;;;4.70;99.80;;;;;;5026133;28;20050;-65
2021/05/08 00:51:52;;;;;;;4.82;1.90;;;4.60;99.80;;;;;;5024376;28;20041;-65
2021/05/08 00:54:17;;;;;;;4.22;2.20;;;4.60;99.90;;;;;;5028232;28;20029;-66
2021/05/08 00:56:43;;;;;;;3.45;2.03;;;4.60;99.80;;;;;;5026697;28;20040;-66
2021/05/08 00:59:09;;;;;;;3.35;1.80;;;4.60;99.80;;;;;;5027395;28;20061;-66
2021/05/08 01:01:35;;;;;;;8.77;2.30;;;4.60;99.60;;;;;;5025926;28;20117;-65
2021/05/08 01:04:01;;;;;;;4.75;1.73;;;4.60;99.60;;;;;;5025667;28;20514;-65
2021/05/08 01:06:27;;;;;;;3.60;2.00;;;4.60;99.60;;;;;;5027385;28;21389;-65
2021/05/08 01:09:04;;;;;;;4.32;2.08;;;4.50;99.60;;;;;;5025062;28;20137;-65
2021/05/08 01:11:31;;;;;;;4.47;2.78;;;4.50;99.60;;;;;;5027260;28;20049;-66
2021/05/08 01:13:57;;;;;;;8.05;2.15;;;4.60;99.70;;;;;;5025523;28;20048;-66
2021/05/08 01:16:23;;;;;;;8.43;2.90;;;4.50;99.70;;;;;;5025025;28;20062;-66
2021/05/08 01:18:51;;;;;;;7.18;2.63;;;4.50;99.90;;;;;;5026674;28;20103;-65
2021/05/08 01:21:20;;;;;;;6.53;3.15;;;4.50;99.90;;;;;;5026365;28;20037;-66
2021/05/08 01:23:50;;;;;;;5.88;2.75;;;4.50;99.90;;;;;;5024859;28;20045;-65
2021/05/08 01:26:17;;;;;;;4.07;2.25;;;4.40;99.90;;;;;;5025686;28;20033;-66
2021/05/08 01:28:43;;;;;;;6.90;2.60;;;4.40;99.90;;;;;;5027031;28;20540;-66
2021/05/08 01:31:10;;;;;;;8.80;2.60;;;4.40;99.90;;;;;;5026853;28;20056;-66
2021/05/08 01:33:36;;;;;;;9.00;2.40;;;4.40;99.90;;;;;;5025660;28;20549;-65
2021/05/08 01:36:02;;;;;;;3.53;2.25;;;4.40;99.90;;;;;;5025190;28;20045;-65
2021/05/08 01:38:28;;;;;;;5.65;2.38;;;4.40;99.90;;;;;;5025293;28;20034;-65
2021/05/08 01:41:06;;;;;;;6.03;2.25;;;4.40;99.90;;;;;;5025526;28;20116;-66
2021/05/08 01:43:35;;;;;;;3.45;2.25;;;4.40;99.90;;;;;;5024396;28;20055;-65
2021/05/08 01:46:00;;;;;;;3.78;3.20;;;4.40;99.90;;;;;;5025286;28;20037;-65
2021/05/08 01:48:28;;;;;;;8.05;3.05;;;4.30;99.90;;;;;;5025770;28;20538;-65
2021/05/08 01:50:54;;;;;;;4.43;2.72;;;4.30;99.90;;;;;;5025139;28;20416;-65
2021/05/08 01:53:21;;;;;;;7.15;2.60;;;4.20;99.90;;;;;;5023811;28;20033;-66
2021/05/08 01:55:48;;;;;;;3.40;2.10;;;4.20;99.90;;;;;;5024417;28;20041;-66
2021/05/08 01:58:13;;;;;;;4.60;2.75;;;4.20;99.90;;;;;;5024345;28;20064;-66
2021/05/08 02:00:44;;;;;;;5.78;3.00;;;4.20;99.90;;;;;;5024892;28;20061;-66
2021/05/08 02:03:11;;;;;;;6.05;2.60;;;4.10;99.90;;;;;;5025664;28;20044;-65
2021/05/08 02:05:39;;;;;;;5.97;3.05;;;4.10;99.90;;;;;;5026356;28;20488;-65
2021/05/08 02:08:09;;;;;;;7.03;3.10;;;4.00;99.90;;;;;;5021484;28;20685;-66
2021/05/08 02:10:39;;;;;;;4.82;2.63;;;3.90;99.90;;;;;;5021948;28;20514;-65
2021/05/08 02:13:07;;;;;;;6.40;3.67;;;3.90;99.90;;;;;;5023686;28;20041;-65
2021/05/08 02:15:34;;;;;;;6.72;2.38;;;3.90;99.90;;;;;;5026497;28;20075;-65
2021/05/08 02:18:00;;;;;;;6.38;2.60;;;3.90;99.90;;;;;;5024101;28;20503;-65
2021/05/08 02:20:28;;;;;;;6.80;2.60;;;3.90;99.90;;;;;;5024378;28;20038;-65
2021/05/08 02:23:00;;;;;;;4.93;1.98;;;3.90;99.90;;;;;;5022662;28;20041;-66
2021/05/08 02:25:27;;;;;;;4.30;2.40;;;3.80;99.90;;;;;;5021110;28;20443;-65
2021/05/08 02:27:53;;;;;;;3.60;2.03;;;3.90;99.90;;;;;;5025731;28;20037;-66
2021/05/08 02:30:21;;;;;;;3.05;2.75;;;3.80;99.90;;;;;;5021609;28;20099;-65
2021/05/08 02:32:47;;;;;;;4.82;2.58;;;3.80;99.90;;;;;;5025365;28;20064;-65
2021/05/08 02:35:15;;;;;;;2.35;1.95;;;3.80;99.90;;;;;;5025814;28;20038;-65
2021/05/08 02:37:41;;;;;;;3.40;2.30;;;3.80;99.90;;;;;;5026638;28;20045;-66
2021/05/08 02:40:09;;;;;;;3.88;2.35;;;3.80;99.90;;;;;;5025719;28;20502;-65
2021/05/08 02:42:36;;;;;;;4.57;2.90;;;3.80;99.90;;;;;;5028622;28;20056;-66
2021/05/08 02:45:03;;;;;;;5.90;3.22;;;3.80;99.90;;;;;;5029549;28;20389;-65
2021/05/08 02:47:29;;;;;;;2.63;2.42;;;3.80;99.90;;;;;;5028638;28;20033;-66
2021/05/08 02:49:55;;;;;;;1.75;1.50;;;3.70;99.90;;;;;;5029898;28;20110;-66
2021/05/08 02:52:21;;;;;;;8.63;3.42;;;3.80;99.90;;;;;;5029395;28;20041;-65
2021/05/08 02:54:47;;;;;;;2.90;1.70;;;3.70;99.90;;;;;;5029452;28;20049;-65
2021/05/08 02:57:13;;;;;;;5.55;2.55;;;3.70;99.90;;;;;;5028138;28;20463;-65
2021/05/08 02:59:38;;;;;;;3.83;2.75;;;3.70;99.90;;;;;;5028596;28;20041;-65
2021/05/08 03:02:05;;;;;;;5.28;2.90;;;3.60;99.90;;;;;;5029574;28;20041;-65
2021/05/08 03:04:32;;;;;;;5.70;3.00;;;3.60;99.90;;;;;;5029109;28;20044;-65
2021/05/08 03:06:59;;;;;;;9.80;3.47;;;3.60;99.90;;;;;;5029261;28;20110;-66
2021/05/08 03:09:24;;;;;;;5.30;3.00;;;3.60;99.90;;;;;;5029826;28;20037;-65
2021/05/08 03:11:50;;;;;;;2.63;2.17;;;3.60;99.90;;;;;;5027292;28;20037;-65
2021/05/08 03:14:16;;;;;;;6.18;2.58;;;3.50;99.90;;;;;;5028542;28;20041;-66
2021/05/08 03:16:43;;;;;;;5.55;3.25;;;3.50;99.90;;;;;;5029707;28;20094;-65
2021/05/08 03:19:10;;;;;;;5.38;3.60;;;3.50;99.90;;;;;;5029778;28;20057;-65
2021/05/08 03:21:38;;;;;;;5.70;4.40;;;3.50;99.90;;;;;;5027322;28;20077;-65
2021/05/08 03:24:05;;;;;;;8.50;5.53;;;3.40;99.90;;;;;;5029122;28;20476;-65
2021/05/08 03:26:31;;;;;;;11.13;6.70;;;3.40;99.90;;;;;;5028211;28;20036;-65
2021/05/08 03:28:57;;;;;;;9.27;5.85;;;3.30;99.90;;;;;;5029061;28;20042;-65
2021/05/08 03:31:23;;;;;;;9.73;6.18;;;3.30;99.90;;;;;;5029201;28;20578;-65
2021/05/08 03:33:49;;;;;;;6.07;5.45;;;3.20;99.90;;;;;;5029339;28;20180;-65
2021/05/08 03:36:14;;;;;;;10.45;5.93;;;3.30;99.90;;;;;;5026956;28;20484;-65
2021/05/08 03:38:40;;;;;;;5.93;5.30;;;3.20;99.90;;;;;;5026478;28;20045;-65
2021/05/08 03:41:06;;;;;;;9.63;6.07;;;3.20;99.90;;;;;;5027505;28;20037;-65
2021/05/08 03:43:32;;;;;;;10.77;7.05;;;3.90;99.90;;;;;;5026900;28;20549;-65
2021/05/08 03:45:58;;;;;;;8.48;6.57;;;3.40;99.90;;;;;;5028491;28;20041;-65
2021/05/08 03:48:24;;;;;;;10.35;7.10;;;3.50;99.90;;;;;;5026579;28;20475;-65
2021/05/08 03:50:52;;;;;;;10.73;7.43;;;3.40;99.90;;;;;;5027487;28;20041;-65
2021/05/08 03:53:22;;;;;;;8.63;6.32;;;3.40;99.90;;;;;;5026475;28;20123;-66
2021/05/08 03:55:50;;;;;;;12.20;7.18;;;3.30;99.90;;;;;;5027792;28;20091;-66
2021/05/08 03:58:16;;;;;;;10.32;7.95;;;3.40;99.90;;;;;;5026858;28;20034;-65
2021/05/08 04:00:42;;;;;;;8.70;6.93;;;3.40;99.90;;;;;;5025422;28;20033;-65
2021/05/08 04:03:07;;;;;;;10.70;7.05;;;3.40;99.90;;;;;;5028007;28;20083;-65
2021/05/08 04:05:33;;;;;;;14.98;7.78;;;3.30;99.90;;;;;;5025217;28;20048;-65
2021/05/08 04:07:59;;;;;;;14.82;8.05;;;3.40;99.90;;;;;;5025651;28;20106;-65
2021/05/08 04:10:24;;;;;;;11.80;8.82;;;3.40;99.90;;;;;;5026981;28;20029;-65
2021/05/08 04:12:50;;;;;;;15.85;9.45;;;4.20;99.90;;;;;;5027997;28;20079;-65
2021/05/08 04:15:16;;;;;;;12.10;8.70;;;3.50;99.90;;;;;;5022516;28;20095;-66
2021/05/08 04:17:41;;;;;;;11.48;9.52;;;3.60;99.90;;;;;;5027896;28;20048;-65
2021/05/08 04:20:11;;;;;;;9.77;8.85;;;3.60;99.90;;;;;;5027032;28;20045;-65
2021/05/08 04:22:39;;;;;;;9.80;8.43;;;3.60;99.90;;;;;;5026226;28;20139;-65
2021/05/08 04:25:05;;;;;;;13.43;9.13;;;3.80;99.90;;;;;;5027477;28;20124;-65
2021/05/08 04:27:31;;;;;;;16.45;9.57;;;3.90;99.90;;;;;;5027302;28;20087;-66
2021/05/08 04:29:57;;;;;;;12.60;9.35;;;4.00;99.90;;;;;;5027171;28;20446;-66
2021/05/08 04:32:23;;;;;;;14.07;10.15;;;4.20;99.90;;;;;;5024970;28;20067;-65
2021/05/08 04:34:48;;;;;;;13.63;8.80;;;4.40;99.90;;;;;;5026186;28;20049;-66
2021/05/08 04:37:14;;;;;;;13.52;8.60;;;4.60;99.90;;;;;;5024360;28;20044;-66
2021/05/08 04:39:40;;;;;;;12.23;8.25;;;4.90;99.90;;;;;;5027490;28;20061;-66
2021/05/08 04:42:06;;;;;;;8.75;7.72;;;4.90;99.90;;;;;;5024843;28;20558;-66
2021/05/08 04:44:32;;;;;;;13.40;8.32;;;5.00;99.90;;;;;;5025337;28;20033;-66
2021/05/08 04:46:58;;;;;;;10.68;8.30;;;5.10;99.90;;;;;;5022612;28;20045;-66
2021/05/08 04:49:23;;;;;;;8.88;7.97;;;5.40;99.70;;;;;;5023278;28;20041;-66
2021/05/08 04:51:53;;;;;;;11.93;8.82;;;5.50;99.70;;;;;;5027299;28;20140;-66
2021/05/08 04:54:19;;;;;;;9.50;7.50;;;5.60;99.40;;;;;;5025176;28;20427;-65
2021/05/08 04:56:47;;;;;;;10.55;7.57;;;5.60;99.20;;;;;;5024441;28;20040;-66
2021/05/08 04:59:13;;;;;;;9.10;7.05;;;5.70;99.10;;;;;;5025626;28;20064;-66
2021/05/08 05:01:39;;;;;;;8.25;6.75;;;6.00;99.10;;;;;;5021608;28;20069;-66
2021/05/08 05:04:05;;;;;;;8.27;6.50;;;6.60;98.90;;;;;;5025501;28;20043;-66
2021/05/08 05:06:31;;;;;;;10.63;5.82;;;7.30;98.60;;;;;;5022834;28;20426;-66
2021/05/08 05:08:57;;;;;;;7.78;5.82;;;8.30;97.10;;;;;;5026754;28;20057;-66
2021/05/08 05:11:23;;;;;;;10.45;5.60;;;9.50;95.50;;;;;;5025360;28;20045;-66
2021/05/08 05:13:51;;;;;;;8.68;5.10;;;10.50;91.30;;;;;;5027213;28;20045;-66
2021/05/08 05:16:17;;;;;;;6.03;4.88;;;11.20;88.90;;;;;;5030490;28;20424;-67
2021/05/08 05:18:43;;;;;;;8.93;4.70;;;12.00;85.90;;;;;;5026725;28;20048;-66
2021/05/08 05:21:09;;;;;;;7.95;5.00;;;12.70;82.90;;;;;;5029178;28;20033;-66
2021/05/08 05:23:35;;;;;;;6.68;4.80;;;13.50;76.70;;;;;;5025051;28;20750;-67
2021/05/08 05:26:01;;;;;;;9.80;5.00;;;14.10;72.30;;;;;;5026059;28;20049;-67
2021/05/08 05:28:29;;;;;;;9.65;4.82;;;14.60;66.80;;;;;;5031472;28;20037;-67
2021/05/08 05:30:56;;;;;;;7.22;4.63;;;15.00;63.80;;;;;;5029850;28;20036;-67
2021/05/08 05:33:23;;;;;;;6.93;4.38;;;15.60;62.40;;;;;;5031538;28;20037;-67
2021/05/08 05:35:51;;;;;;;5.90;4.22;;;16.20;60.80;;;;;;5027861;28;20515;-67
2021/05/08 05:38:17;;;;;;;6.72;4.85;;;16.80;58.10;;;;;;5026561;28;20044;-67
2021/05/08 05:40:44;;;;;;;5.97;5.07;;;17.10;53.90;;;;;;5026688;28;20042;-67
2021/05/08 05:43:11;;;;;;;6.53;4.53;;;17.30;52.60;;;;;;5028586;28;20049;-67
2021/05/08 05:45:37;;;;;;;5.97;4.45;;;17.70;54.80;;;;;;5032262;28;20033;-67
2021/05/08 05:48:05;;;;;;;7.28;4.80;;;17.80;51.50;;;;;;5027282;28;20059;-68
2021/05/08 05:50:39;;;;;;;6.40;4.47;;;17.80;51.50;;;;;;5023347;28;20112;-68
2021/05/08 05:53:05;;;;;;;6.15;4.07;;;17.30;51.00;;;;;;5022739;28;20045;-68
2021/05/08 05:55:32;;;;;;;8.65;5.38;;;16.50;54.90;;;;;;5025633;28;20509;-68
2021/05/08 05:57:58;;;;;;;7.95;5.05;;;15.90;57.40;;;;;;5022381;28;20048;-68
2021/05/08 06:00:23;;;;;;;11.82;5.30;;;15.40;55.80;;;;;;5022050;28;20045;-68
2021/05/08 06:02:50;;;;;;;7.63;4.63;;;14.60;59.30;;;;;;5020268;28;20038;-68
2021/05/08 06:05:16;;;;;;;8.27;4.78;;;14.10;61.80;;;;;;5020671;28;20041;-68
2021/05/08 06:07:43;;;;;;;8.10;4.88;;;13.50;64.80;;;;;;5021519;28;20041;-68
2021/05/08 06:10:11;;;;;;;7.07;4.78;;;13.30;67.70;;;;;;5020860;28;20172;-68
2021/05/08 06:12:37;;;;;;;6.97;4.70;;;13.20;67.70;;;;;;5017978;28;20068;-68
2021/05/08 06:15:04;;;;;;;5.57;4.40;;;13.10;69.90;;;;;;5023762;28;20030;-68
2021/05/08 06:17:30;;;;;;;6.13;4.50;;;12.90;70.60;;;;;;5024963;28;20143;-68
2021/05/08 06:19:56;;;;;;;11.18;6.63;;;12.80;69.00;;;;;;5028945;28;20045;-67
2021/05/08 06:22:23;;;;;;;8.38;5.05;;;12.70;71.00;;;;;;5027129;28;20472;-67
2021/05/08 06:24:49;;;;;;;8.23;5.10;;;12.60;71.10;;;;;;5025408;28;20052;-67
2021/05/08 06:27:14;;;;;;;7.57;5.55;;;12.60;72.80;;;;;;5029821;28;20041;-67
2021/05/08 06:29:40;;;;;;;7.32;5.53;;;12.70;72.10;;;;;;5031055;28;20500;-67
2021/05/08 06:32:06;;;;;;;8.32;5.65;;;12.60;71.50;;;;;;5028387;28;20069;-67
2021/05/08 06:34:33;;;;;;;11.88;5.97;;;12.40;71.20;;;;;;5030742;28;20124;-67
2021/05/08 06:37:00;;;;;;;8.35;6.53;;;12.30;73.20;;;;;;5028461;28;20045;-67
2021/05/08 06:39:27;;;;;;;8.35;6.03;;;12.10;74.10;;;;;;5028601;28;20041;-67
2021/05/08 06:41:53;;;;;;;7.82;6.53;;;12.00;76.40;;;;;;5030044;28;20040;-67
2021/05/08 06:44:19;;;;;;;8.38;7.47;;;11.90;76.60;;;;;;5025900;28;20045;-67
2021/05/08 06:46:45;;;;;;;9.88;7.70;;;11.80;77.10;;;;;;5027078;28;20033;-67
2021/05/08 06:49:11;;;;;;;14.05;8.00;;;11.80;77.80;;;;;;5026033;28;20042;-67
2021/05/08 06:51:38;;;;;;;8.60;7.38;;;11.90;77.60;;;;;;5024437;28;20052;-68
2021/05/08 06:54:05;;;;;;;8.27;6.43;;;12.00;79.20;;;;;;5024851;28;20033;-67
2021/05/08 06:56:31;;;;;;;9.80;7.13;;;12.00;79.10;;;;;;5024227;28;20033;-67
2021/05/08 06:58:58;;;;;;;10.85;8.00;;;12.10;80.20;;;;;;5026663;28;20051;-67
2021/05/08 07:01:25;;;;;;;8.32;7.05;;;12.10;78.00;;;;;;5025154;28;20042;-67
2021/05/08 07:03:51;;;;;;;13.32;8.38;;;12.10;77.20;;;;;;5023102;28;20041;-67
2021/05/08 07:06:17;;;;;;;9.65;8.02;;;12.10;77.90;;;;;;5024418;28;20053;-67
2021/05/08 07:08:47;;;;;;;10.23;8.18;;;12.10;76.60;;;;;;5023702;28;20496;-67
2021/05/08 07:11:13;;;;;;;10.77;7.93;;;12.10;77.60;;;;;;5024000;28;20072;-67
2021/05/08 07:13:39;;;;;;;10.02;8.00;;;12.00;75.60;;;;;;5024727;28;20389;-68
2021/05/08 07:16:05;;;;;;;10.23;7.55;;;12.00;76.30;;;;;;5025036;28;20033;-68
2021/05/08 07:18:31;;;;;;;8.75;7.22;;;11.70;74.40;;;;;;5024904;28;20387;-68
2021/05/08 07:20:57;;;;;;;10.43;6.90;;;11.60;76.50;;;;;;5020477;28;20029;-67
2021/05/08 07:23:23;;;;;;;10.00;7.70;;;11.50;76.00;;;;;;5023145;28;20057;-67
2021/05/08 07:25:49;;;;;;;10.32;7.35;;;11.50;77.30;;;;;;5023584;28;20068;-67
2021/05/08 07:28:26;;;;;;;7.93;6.55;;;11.50;78.20;;;;;;5023657;28;20038;-67
2021/05/08 07:30:55;;;;;;;10.57;7.15;;;11.60;78.40;;;;;;5024342;28;20049;-67
2021/05/08 07:33:22;;;;;;;9.10;7.05;;;11.70;78.70;;;;;;5023738;28;21717;-69
2021/05/08 07:35:48;;;;;;;8.75;6.78;;;11.70;75.70;;;;;;5026672;28;20037;-67
2021/05/08 07:38:16;;;;;;;8.35;7.43;;;11.60;77.60;;;;;;5027151;28;20099;-68
2021/05/08 07:40:43;;;;;;;7.88;7.07;;;11.70;76.90;;;;;;5028348;28;20067;-67
2021/05/08 07:43:10;;;;;;;9.30;8.30;;;11.70;78.50;;;;;;5024960;28;20602;-68
2021/05/08 07:45:37;;;;;;;7.97;6.78;;;11.70;76.40;;;;;;5024980;28;20080;-67
2021/05/08 07:48:05;;;;;;;11.85;8.13;;;11.80;78.00;;;;;;5026081;28;20052;-67
2021/05/08 07:50:32;;;;;;;12.75;7.75;;;11.80;76.90;;;;;;5021451;28;20088;-67
2021/05/08 07:52:59;;;;;;;10.02;7.60;;;11.80;79.50;;;;;;5025172;28;20041;-67
2021/05/08 07:55:25;;;;;;;11.90;8.65;;;11.90;82.10;;;;;;5027087;28;20036;-68
2021/05/08 07:57:51;;;;;;;12.90;9.07;;;11.90;82.50;;;;;;5025445;28;20471;-68
2021/05/08 08:00:19;;;;;;;9.50;7.35;;;12.00;81.30;;;;;;5026973;28;20045;-67
2021/05/08 08:03:05;;;;;;;10.55;7.22;;;12.00;78.90;;;;;;5020402;28;20049;-67
2021/05/08 08:05:30;;;;;;;12.25;8.15;;;12.20;77.00;;;;;;5026791;28;20040;-67
2021/05/08 08:07:57;;;;;;;10.77;7.25;;;12.20;74.50;;;;;;5020022;28;20539;-68
2021/05/08 08:10:23;;;;;;;14.18;9.45;;;12.10;73.20;;;;;;5024443;28;20049;-68
2021/05/08 08:12:49;;;;;;;9.32;6.85;;;12.00;74.50;;;;;;5022781;28;20056;-68
2021/05/08 08:15:16;;;;;;;10.85;7.28;;;11.90;75.30;;;;;;5026344;28;20041;-67
2021/05/08 08:17:42;;;;;;;14.57;8.20;;;11.90;74.20;;;;;;5028463;28;20037;-67
2021/05/08 08:20:12;;;;;;;10.65;7.90;;;12.00;76.30;;;;;;5024056;28;20106;-68
2021/05/08 08:22:40;;;;;;;12.93;8.45;;;12.10;77.50;;;;;;5022772;28;20049;-68
2021/05/08 08:25:08;;;;;;;12.98;8.88;;;12.20;77.30;;;;;;5026175;28;20045;-68
2021/05/08 08:27:34;;;;;;;16.15;9.40;;;12.30;75.70;;;;;;5041512;28;20740;-68
2021/05/08 08:30:00;;;;;;;12.23;9.85;;;12.30;75.30;;;;;;5027184;28;20045;-67
2021/05/08 08:32:25;;;;;;;13.32;9.35;;;12.30;79.00;;;;;;5025381;28;20555;-68
2021/05/08 08:34:51;;;;;;;15.07;9.80;;;12.30;80.60;;;;;;5020436;28;20171;-68
2021/05/08 08:37:17;;;;;;;14.32;8.60;;;12.30;76.60;;;;;;5026655;28;20080;-67
2021/05/08 08:39:43;;;;;;;14.57;10.00;;;12.30;71.70;;;;;;5027563;28;20537;-68
2021/05/08 08:42:09;;;;;;;20.52;9.65;;;12.30;73.10;;;;;;5024425;28;20045;-68
2021/05/08 08:44:38;;;;;;;13.88;9.80;;;12.30;72.60;;;;;;5020433;28;20523;-67
2021/05/08 08:50:02;;;;;;;12.73;8.85;;;12.40;73.10;;;;;;5014224;28;20057;-68
2021/05/08 08:52:29;;;;;;;14.52;9.68;;;12.40;70.50;;;;;;5023100;28;20038;-68
2021/05/08 08:54:58;;;;;;;16.55;10.13;;;12.40;72.60;;;;;;5017065;28;20492;-67
2021/05/08 08:57:31;;;;;;;13.77;10.45;;;12.40;70.20;;;;;;5020520;28;20457;-67
2021/05/08 08:59:59;;;;;;;11.88;8.88;;;12.40;73.50;;;;;;5023373;28;20119;-67
2021/05/08 09:02:28;;;;;;;13.18;9.63;;;12.60;69.60;;;;;;5027719;28;21044;-67
2021/05/08 09:04:57;;;;;;;11.85;8.88;;;12.60;70.00;;;;;;5022260;28;20045;-67
2021/05/08 09:07:26;;;;;;;12.00;9.07;;;12.60;69.50;;;;;;5020020;28;20117;-67
2021/05/08 09:09:52;;;;;;;13.75;9.65;;;12.70;70.80;;;;;;5021533;28;20048;-68
2021/05/08 09:12:19;;;;;;;13.50;9.93;;;12.70;71.50;;;;;;5022670;28;20045;-68
2021/05/08 09:14:49;;;;;;;25.17;10.65;;;12.70;72.10;;;;;;5021630;28;20045;-68
2021/05/08 09:17:25;;;;;;;15.73;10.40;;;12.80;71.50;;;;;;5021887;28;20688;-68
2021/05/08 09:20:02;;;;;;;13.60;10.50;;;12.80;71.10;;;;;;5020959;28;20041;-67
2021/05/08 09:22:30;;;;;;;13.27;9.63;;;12.70;71.30;;;;;;5023645;28;20119;-67
2021/05/08 09:25:01;;;;;;;13.85;9.60;;;12.80;72.70;;;;;;5023183;28;20040;-67
2021/05/08 09:27:46;;;;;;;10.85;9.57;;;12.80;70.90;;;;;;5022252;28;20120;-69
2021/05/08 09:30:38;;;;;;;11.93;9.98;;;12.80;71.30;;;;;;5020795;28;20045;-70
2021/05/08 09:33:04;;;;;;;12.10;9.55;;;12.80;72.20;;;;;;5021670;28;20049;-68
2021/05/08 09:35:34;;;;;;;12.23;9.60;;;12.90;68.40;;;;;;5023089;28;20127;-68
2021/05/08 09:38:13;;;;;;;13.18;10.15;;;12.80;69.60;;;;;;5022090;28;20480;-68
2021/05/08 09:40:42;;;;;;;12.98;10.32;;;12.90;70.30;;;;;;5021157;28;20087;-67
2021/05/08 09:43:13;;;;;;;13.18;10.75;;;12.80;70.80;;;;;;5022862;28;20029;-68
2021/05/08 09:45:41;;;;;;;15.13;10.15;;;12.80;68.60;;;;;;5024087;28;20042;-68
2021/05/08 09:48:21;;;;;;;14.27;9.73;;;12.70;71.90;;;;;;5017154;28;20044;-68
2021/05/08 09:50:47;;;;;;;11.82;9.60;;;12.70;71.20;;;;;;5007499;28;20045;-71
2021/05/08 09:53:30;;;;;;;12.18;9.60;;;12.80;69.10;;;;;;5031052;28;20053;-71
2021/05/08 09:55:56;;;;;;;13.35;9.43;;;12.70;71.40;;;;;;5027049;28;20499;-71
2021/05/08 09:58:26;;;;;;;15.82;9.80;;;12.70;71.00;;;;;;5029958;28;20029;-71
2021/05/08 10:00:53;;;;;;;14.65;9.88;;;12.80;69.00;;;;;;5030139;28;20172;-70
2021/05/08 10:03:20;;;;;;;13.48;10.30;;;12.80;68.90;;;;;;5031554;28;20099;-70
2021/05/08 10:06:01;;;;;;;13.25;9.75;;;12.80;70.30;;;;;;5030791;28;20029;-71
2021/05/08 10:08:27;;;;;;;14.25;10.00;;;12.70;70.30;;;;;;5027291;28;20114;-71
2021/05/08 10:10:54;;;;;;;12.38;9.80;;;12.80;72.70;;;;;;5029801;28;20779;-70
2021/05/08 10:13:20;;;;;;;14.18;9.95;;;13.00;72.70;;;;;;5028676;28;20120;-68
2021/05/08 10:15:47;;;;;;;19.67;11.32;;;13.10;72.50;;;;;;5025608;28;20042;-67
2021/05/08 10:18:14;;;;;;;13.20;8.85;;;13.20;73.90;;;;;;5028092;28;20037;-67
2021/05/08 10:20:42;;;;;;;10.25;8.73;;;13.40;69.70;;;;;;5029348;28;20144;-67
2021/05/08 10:23:10;;;;;;;12.07;9.25;;;13.60;68.50;;;;;;5029646;28;20045;-67
2021/05/08 10:25:37;;;;;;;13.30;8.50;;;13.80;65.60;;;;;;5029024;28;20376;-67
2021/05/08 10:28:04;;;;;;;11.75;8.35;;;14.00;66.10;;;;;;5028501;28;20038;-66
2021/05/08 10:30:33;;;;;;;12.60;7.80;;;14.00;69.10;;;;;;5028897;28;20077;-67
2021/05/08 10:33:00;;;;;;;13.57;8.77;;;14.10;67.20;;;;;;5028830;28;20073;-68
2021/05/08 10:35:45;;;;;;;9.95;8.13;;;14.20;68.30;;;;;;5028056;28;20052;-70
2021/05/08 10:38:26;;;;;;;10.40;6.70;;;14.30;67.60;;;;;;5029003;28;20112;-70
2021/05/08 10:41:05;;;;;;;15.02;9.07;;;14.40;64.30;;;;;;5029977;28;20385;-69
2021/05/08 10:44:05;;;;;;;17.98;9.65;;;14.40;64.00;;;;;;5028689;28;20034;-70
2021/05/08 10:46:53;;;;;;;12.93;7.53;;;14.60;68.80;;;;;;5027516;28;20114;-70
2021/05/08 10:49:19;;;;;;;11.57;7.95;;;14.80;64.40;;;;;;5026922;28;20107;-69
2021/05/08 10:51:57;;;;;;;16.83;8.18;;;14.80;62.60;;;;;;5028432;28;20464;-71
2021/05/08 10:54:39;;;;;;;16.10;8.23;;;14.80;63.40;;;;;;5029548;28;20045;-69
2021/05/08 10:57:27;;;;;;;12.55;7.07;;;14.80;64.30;;;;;;5026680;28;20090;-71
2021/05/08 11:00:04;;;;;;;13.40;7.65;;;14.80;64.40;;;;;;5029360;28;20041;-70
2021/05/08 11:02:45;;;;;;;9.77;6.95;;;14.80;64.50;;;;;;5029487;28;20060;-67
2021/05/08 11:05:24;;;;;;;9.23;6.80;;;14.80;63.80;;;;;;5025506;28;20103;-66
2021/05/08 11:07:50;;;;;;;10.68;6.97;;;14.80;66.10;;;;;;5025715;28;20042;-66
2021/05/08 11:10:39;;;;;;;9.70;6.47;;;14.70;64.40;;;;;;5028398;28;20041;-67
2021/05/08 11:13:12;;;;;;;11.77;6.35;;;14.80;66.60;;;;;;5024642;28;20056;-66
2021/05/08 11:15:50;;;;;;;11.77;6.13;;;14.80;63.90;;;;;;5024186;28;20116;-66
2021/05/08 11:18:34;;;;;;;10.65;6.40;;;14.80;64.80;;;;;;5026916;28;20072;-67
2021/05/08 11:21:23;;;;;;;12.65;6.88;;;14.80;62.40;;;;;;5025744;28;20052;-66
2021/05/08 11:24:02;;;;;;;8.13;5.95;;;14.60;63.80;;;;;;5026770;28;20033;-66
2021/05/08 11:26:28;;;;;;;8.48;6.38;;;14.50;63.40;;;;;;5029029;28;20768;-66
2021/05/08 11:28:54;;;;;;;6.75;4.38;;;14.50;63.90;;;;;;5028583;28;20057;-66
2021/05/08 11:31:31;;;;;;;9.63;5.00;;;14.40;64.90;;;;;;5027652;28;20148;-66
2021/05/08 11:34:12;;;;;;;6.40;5.15;;;14.30;64.20;;;;;;5020908;28;20044;-66
2021/05/08 11:36:52;;;;;;;6.68;5.30;;;14.40;63.40;;;;;;5024228;28;20041;-66
2021/05/08 11:39:24;;;;;;;5.95;5.13;;;14.40;64.30;;;;;;5023520;28;20148;-66
2021/05/08 11:42:01;;;;;;;7.65;4.43;;;14.50;65.20;;;;;;5024975;28;20053;-66
2021/05/08 11:44:32;;;;;;;7.55;4.35;;;14.50;60.80;;;;;;5025752;28;20064;-66
2021/05/08 11:50:00;;;;;;;5.25;3.72;;;14.40;62.10;;;;;;5022707;28;20651;-66
2021/05/08 11:52:38;;;;;;;55.13;8.38;;;14.40;61.20;;;;;;5025909;28;20040;-66
2021/05/08 11:55:06;;;;;;;6.28;3.95;;;14.20;64.20;;;;;;5024312;28;20408;-66
2021/05/08 11:57:34;;;;;;;7.50;3.20;;;14.10;62.10;;;;;;5020489;28;20068;-66
2021/05/08 12:00:19;;;;;;;6.60;3.78;;;14.00;62.60;;;;;;5019005;28;20050;-66
2021/05/08 12:02:45;;;;;;;6.00;3.90;;;13.80;64.60;;;;;;5024124;28;20052;-66
2021/05/08 12:05:11;;;;;;;5.57;3.78;;;13.70;65.10;;;;;;5024479;28;20041;-66
2021/05/08 12:07:43;;;;;;;5.32;3.53;;;13.60;67.40;;;;;;5024430;28;20045;-66
2021/05/08 12:10:17;;;;;;;5.45;3.70;;;13.80;70.10;;;;;;5024001;28;20096;-66
2021/05/08 12:12:54;;;;;;;3.50;3.08;;;13.60;70.90;;;;;;5024788;28;20064;-66
2021/05/08 12:15:23;;;;;;;5.85;3.45;;;13.50;70.40;;;;;;5024974;28;20040;-66
2021/05/08 12:17:52;;;;;;;4.22;3.40;;;13.40;72.60;;;;;;5023777;28;20068;-66
2021/05/08 12:20:28;;;;;;;6.05;3.45;;;13.40;73.60;;;;;;5024735;28;20814;-66
2021/05/08 12:22:56;;;;;;;6.63;3.38;;;13.40;72.70;;;;;;5022972;28;20033;-66
2021/05/08 12:25:26;;;;;;;5.78;3.63;;;13.30;71.60;;;;;;5023243;28;20037;-66
2021/05/08 12:28:21;;;;;;;7.85;3.50;;;13.40;72.80;;;;;;5018296;28;20360;-66
2021/05/08 12:30:50;;;;;;;6.82;3.88;;;13.40;74.00;;;;;;5021213;28;20124;-66
2021/05/08 12:33:21;;;;;;;6.35;3.42;;;13.40;74.10;;;;;;5022291;28;20049;-66
2021/05/08 12:35:48;;;;;;;5.32;3.10;;;13.40;75.50;;;;;;5021962;28;20045;-66
2021/05/08 12:38:17;;;;;;;4.40;3.20;;;13.40;75.40;;;;;;5021690;28;20064;-66
2021/05/08 12:40:44;;;;;;;4.45;2.92;;;13.20;77.90;;;;;;5023901;28;20065;-66
2021/05/08 12:43:10;;;;;;;4.35;2.72;;;13.20;80.50;;;;;;5023634;28;20137;-66
2021/05/08 12:46:00;;;;;;;3.00;2.63;;;13.00;80.80;;;;;;5022751;28;20037;-66
2021/05/08 12:48:36;;;;;;;3.88;2.05;;;13.00;76.40;;;;;;5015789;28;20052;-66
2021/05/08 12:51:02;;;;;;;;;;;12.90;80.90;;;;;;5022028;28;20048;-66
2021/05/08 12:53:28;;;;;;;4.20;3.03;;;12.70;83.50;;;;;;5019950;28;19917;-66
2021/05/08 12:56:05;;;;;;;4.43;2.83;;;12.70;84.60;;;;;;5019135;28;20045;-66
2021/05/08 12:58:38;;;;;;;3.95;2.75;;;12.60;84.50;;;;;;5021001;28;20037;-66
2021/05/08 13:01:05;;;;;;;5.82;2.88;;;12.60;86.90;;;;;;5020516;28;20044;-66